Observations for REGGIO CALABRIA AFB, Italy (LICR)

LICR 200550Z VRB02KT CAVOK 14/08 Q1025  
LICR 200450Z 06005KT CAVOK 09/06 Q1024  
LICR 200359Z 06003KT 030V100 CAVOK 10/06 Q1024
LICR 200350Z 06003KT 030V090 CAVOK 10/06 Q1024  
LICR 192150Z 08002KT CAVOK 12/10 Q1026  
LICR 192050Z 06003KT CAVOK 13/11 Q1026  
LICR 191950Z 10004KT CAVOK 13/11 Q1026  
LICR 191850Z 18004KT CAVOK 14/13 Q1026  
LICR 191750Z 21006KT CAVOK 15/13 Q1025  
LICR 191650Z 22007KT CAVOK 16/13 Q1025  
LICR 191550Z 22010KT CAVOK 17/12 Q1025  
LICR 191450Z 22010KT CAVOK 17/12 Q1025  
LICR 191350Z 22010KT CAVOK 18/12 Q1025  
LICR 191250Z 22011KT CAVOK 18/11 Q1025  
LICR 191150Z 22011KT CAVOK 18/12 Q1026  
LICR 191050Z 22010KT CAVOK 18/11 Q1026  
LICR 190950Z 22011KT CAVOK 18/11 Q1026  
LICR 190850Z 21007KT CAVOK 18/11 Q1026  
LICR 190750Z 19004KT 160V250 CAVOK 18/11 Q1026  
LICR 190650Z 17003KT 130V200 CAVOK 17/10 Q1025